sensor_id;sensor_type;location;lat;lon;timestamp;temperature;humidity
14687;DHT22;7431;49.440;11.084;2023-02-22T00:00:52;18.60;99.90
14687;DHT22;7431;49.440;11.084;2023-02-22T00:03:21;18.60;99.90
14687;DHT22;7431;49.440;11.084;2023-02-22T00:05:55;18.60;99.90
14687;DHT22;7431;49.440;11.084;2023-02-22T00:08:25;18.60;99.90
14687;DHT22;7431;49.440;11.084;2023-02-22T00:10:55;18.60;99.90
14687;DHT22;7431;49.440;11.084;2023-02-22T00:13:21;18.60;99.90
14687;DHT22;7431;49.440;11.084;2023-02-22T00:15:47;18.60;99.90
14687;DHT22;7431;49.440;11.084;2023-02-22T00:18:15;18.60;99.90
14687;DHT22;7431;49.440;11.084;2023-02-22T00:20:42;18.60;99.90
14687;DHT22;7431;49.440;11.084;2023-02-22T00:23:13;18.60;99.90
14687;DHT22;7431;49.440;11.084;2023-02-22T00:25:39;18.60;99.90
14687;DHT22;7431;49.440;11.084;2023-02-22T00:28:05;18.60;99.90
14687;DHT22;7431;49.440;11.084;2023-02-22T00:30:31;18.60;99.90
14687;DHT22;7431;49.440;11.084;2023-02-22T00:32:58;18.70;99.90
14687;DHT22;7431;49.440;11.084;2023-02-22T00:35:25;18.60;99.90
14687;DHT22;7431;49.440;11.084;2023-02-22T00:37:54;18.60;99.90
14687;DHT22;7431;49.440;11.084;2023-02-22T00:40:23;18.60;99.90
14687;DHT22;7431;49.440;11.084;2023-02-22T00:42:49;18.60;99.90
14687;DHT22;7431;49.440;11.084;2023-02-22T00:45:16;18.60;99.90
14687;DHT22;7431;49.440;11.084;2023-02-22T00:47:42;18.60;99.90
14687;DHT22;7431;49.440;11.084;2023-02-22T00:50:08;18.60;99.90
14687;DHT22;7431;49.440;11.084;2023-02-22T00:52:34;18.60;99.90
14687;DHT22;7431;49.440;11.084;2023-02-22T00:55:00;18.60;99.90
14687;DHT22;7431;49.440;11.084;2023-02-22T00:57:26;18.60;99.90
14687;DHT22;7431;49.440;11.084;2023-02-22T00:59:52;18.50;99.90
14687;DHT22;7431;49.440;11.084;2023-02-22T01:02:17;18.50;99.90
14687;DHT22;7431;49.440;11.084;2023-02-22T01:04:43;18.60;99.90
14687;DHT22;7431;49.440;11.084;2023-02-22T01:07:08;18.50;99.90
14687;DHT22;7431;49.440;11.084;2023-02-22T01:09:34;18.60;99.90
14687;DHT22;7431;49.440;11.084;2023-02-22T01:12:01;18.60;99.90
14687;DHT22;7431;49.440;11.084;2023-02-22T01:14:27;18.60;99.90
14687;DHT22;7431;49.440;11.084;2023-02-22T01:16:54;18.60;99.90
14687;DHT22;7431;49.440;11.084;2023-02-22T01:19:22;18.50;99.90
14687;DHT22;7431;49.440;11.084;2023-02-22T01:21:49;18.50;99.90
14687;DHT22;7431;49.440;11.084;2023-02-22T01:24:16;18.50;99.90
14687;DHT22;7431;49.440;11.084;2023-02-22T01:26:42;18.60;99.90
14687;DHT22;7431;49.440;11.084;2023-02-22T01:29:13;18.50;99.90
14687;DHT22;7431;49.440;11.084;2023-02-22T01:31:40;18.50;99.90
14687;DHT22;7431;49.440;11.084;2023-02-22T01:34:11;18.50;99.90
14687;DHT22;7431;49.440;11.084;2023-02-22T01:36:37;18.60;99.90
14687;DHT22;7431;49.440;11.084;2023-02-22T01:39:04;18.50;99.90
14687;DHT22;7431;49.440;11.084;2023-02-22T01:41:30;18.60;99.90
14687;DHT22;7431;49.440;11.084;2023-02-22T01:43:56;18.50;99.90
14687;DHT22;7431;49.440;11.084;2023-02-22T01:46:22;18.50;99.90
14687;DHT22;7431;49.440;11.084;2023-02-22T01:48:55;18.50;99.90
14687;DHT22;7431;49.440;11.084;2023-02-22T01:51:24;18.50;99.90
14687;DHT22;7431;49.440;11.084;2023-02-22T01:54:00;18.50;99.90
14687;DHT22;7431;49.440;11.084;2023-02-22T01:56:30;18.50;99.90
14687;DHT22;7431;49.440;11.084;2023-02-22T01:59:05;18.50;99.90
14687;DHT22;7431;49.440;11.084;2023-02-22T02:01:32;18.50;99.90
14687;DHT22;7431;49.440;11.084;2023-02-22T02:04:02;18.50;99.90
14687;DHT22;7431;49.440;11.084;2023-02-22T02:06:31;18.50;99.90
14687;DHT22;7431;49.440;11.084;2023-02-22T02:11:24;18.50;99.90
14687;DHT22;7431;49.440;11.084;2023-02-22T02:13:52;18.50;99.90
14687;DHT22;7431;49.440;11.084;2023-02-22T02:16:20;18.50;99.90
14687;DHT22;7431;49.440;11.084;2023-02-22T02:18:46;18.50;99.90
14687;DHT22;7431;49.440;11.084;2023-02-22T02:35:19;18.50;99.90
14687;DHT22;7431;49.440;11.084;2023-02-22T02:48:27;18.50;99.90
14687;DHT22;7431;49.440;11.084;2023-02-22T02:50:57;18.50;99.90
14687;DHT22;7431;49.440;11.084;2023-02-22T02:53:30;18.50;99.90
14687;DHT22;7431;49.440;11.084;2023-02-22T02:56:00;18.50;99.90
14687;DHT22;7431;49.440;11.084;2023-02-22T02:58:26;18.40;99.90
14687;DHT22;7431;49.440;11.084;2023-02-22T03:00:55;18.40;99.90
14687;DHT22;7431;49.440;11.084;2023-02-22T03:06:53;18.40;99.90
14687;DHT22;7431;49.440;11.084;2023-02-22T03:18:31;18.40;99.90
14687;DHT22;7431;49.440;11.084;2023-02-22T03:21:19;18.40;99.90
14687;DHT22;7431;49.440;11.084;2023-02-22T03:23:52;18.40;99.90
14687;DHT22;7431;49.440;11.084;2023-02-22T03:26:32;18.50;99.90
14687;DHT22;7431;49.440;11.084;2023-02-22T03:28:58;18.40;99.90
14687;DHT22;7431;49.440;11.084;2023-02-22T03:31:32;18.40;99.90
14687;DHT22;7431;49.440;11.084;2023-02-22T03:34:06;18.40;99.90
14687;DHT22;7431;49.440;11.084;2023-02-22T03:36:35;18.40;99.90
14687;DHT22;7431;49.440;11.084;2023-02-22T03:39:05;18.40;99.90
14687;DHT22;7431;49.440;11.084;2023-02-22T03:41:33;18.40;99.90
14687;DHT22;7431;49.440;11.084;2023-02-22T03:44:12;18.40;99.90
14687;DHT22;7431;49.440;11.084;2023-02-22T03:46:40;18.40;99.90
14687;DHT22;7431;49.440;11.084;2023-02-22T03:51:56;18.40;99.90
14687;DHT22;7431;49.440;11.084;2023-02-22T03:54:22;18.40;99.90
14687;DHT22;7431;49.440;11.084;2023-02-22T03:56:57;18.40;99.90
14687;DHT22;7431;49.440;11.084;2023-02-22T03:59:25;18.50;99.90
14687;DHT22;7431;49.440;11.084;2023-02-22T04:01:55;18.40;99.90
14687;DHT22;7431;49.440;11.084;2023-02-22T04:04:22;18.30;99.90
14687;DHT22;7431;49.440;11.084;2023-02-22T04:06:48;18.40;99.90
14687;DHT22;7431;49.440;11.084;2023-02-22T04:09:14;18.40;99.90
14687;DHT22;7431;49.440;11.084;2023-02-22T04:11:40;18.30;99.90
14687;DHT22;7431;49.440;11.084;2023-02-22T04:14:05;18.40;99.90
14687;DHT22;7431;49.440;11.084;2023-02-22T04:16:31;18.40;99.90
14687;DHT22;7431;49.440;11.084;2023-02-22T04:18:56;18.40;99.90
14687;DHT22;7431;49.440;11.084;2023-02-22T04:21:22;18.40;99.90
14687;DHT22;7431;49.440;11.084;2023-02-22T04:23:48;18.40;99.90
14687;DHT22;7431;49.440;11.084;2023-02-22T04:26:13;18.30;99.90
14687;DHT22;7431;49.440;11.084;2023-02-22T04:28:39;18.40;99.90
14687;DHT22;7431;49.440;11.084;2023-02-22T04:31:04;18.30;99.90
14687;DHT22;7431;49.440;11.084;2023-02-22T04:33:30;18.30;99.90
14687;DHT22;7431;49.440;11.084;2023-02-22T04:35:55;18.40;99.90
14687;DHT22;7431;49.440;11.084;2023-02-22T04:38:36;18.40;99.90
14687;DHT22;7431;49.440;11.084;2023-02-22T04:41:02;18.30;99.90
14687;DHT22;7431;49.440;11.084;2023-02-22T04:43:27;18.30;99.90
14687;DHT22;7431;49.440;11.084;2023-02-22T04:45:53;18.40;99.90
14687;DHT22;7431;49.440;11.084;2023-02-22T04:48:18;18.30;99.90
14687;DHT22;7431;49.440;11.084;2023-02-22T04:50:44;18.30;99.90
14687;DHT22;7431;49.440;11.084;2023-02-22T04:53:10;18.30;99.90
14687;DHT22;7431;49.440;11.084;2023-02-22T04:55:35;18.50;99.90
14687;DHT22;7431;49.440;11.084;2023-02-22T04:58:01;18.30;99.90
14687;DHT22;7431;49.440;11.084;2023-02-22T05:00:26;18.30;99.90
14687;DHT22;7431;49.440;11.084;2023-02-22T05:02:52;18.30;99.90
14687;DHT22;7431;49.440;11.084;2023-02-22T05:05:19;18.40;99.90
14687;DHT22;7431;49.440;11.084;2023-02-22T05:07:48;18.30;99.90
14687;DHT22;7431;49.440;11.084;2023-02-22T05:10:14;18.30;99.90
14687;DHT22;7431;49.440;11.084;2023-02-22T05:12:40;18.30;99.90
14687;DHT22;7431;49.440;11.084;2023-02-22T05:15:07;18.30;99.90
14687;DHT22;7431;49.440;11.084;2023-02-22T05:17:33;18.30;99.90
14687;DHT22;7431;49.440;11.084;2023-02-22T05:19:59;18.30;99.90
14687;DHT22;7431;49.440;11.084;2023-02-22T05:22:25;18.30;99.90
14687;DHT22;7431;49.440;11.084;2023-02-22T05:24:51;18.30;99.90
14687;DHT22;7431;49.440;11.084;2023-02-22T05:27:17;18.30;99.90
14687;DHT22;7431;49.440;11.084;2023-02-22T05:29:43;18.30;99.90
14687;DHT22;7431;49.440;11.084;2023-02-22T05:32:09;18.30;99.90
14687;DHT22;7431;49.440;11.084;2023-02-22T05:34:36;18.30;99.90
14687;DHT22;7431;49.440;11.084;2023-02-22T05:37:02;18.30;99.90
14687;DHT22;7431;49.440;11.084;2023-02-22T05:39:28;18.30;99.90
14687;DHT22;7431;49.440;11.084;2023-02-22T05:41:54;18.30;99.90
14687;DHT22;7431;49.440;11.084;2023-02-22T05:44:20;18.30;99.90
14687;DHT22;7431;49.440;11.084;2023-02-22T05:46:45;18.30;99.90
14687;DHT22;7431;49.440;11.084;2023-02-22T05:49:11;18.30;99.90
14687;DHT22;7431;49.440;11.084;2023-02-22T05:51:36;18.20;99.90
14687;DHT22;7431;49.440;11.084;2023-02-22T05:54:02;18.30;99.90
14687;DHT22;7431;49.440;11.084;2023-02-22T05:56:28;18.40;99.90
14687;DHT22;7431;49.440;11.084;2023-02-22T05:58:55;18.30;99.90
14687;DHT22;7431;49.440;11.084;2023-02-22T06:01:21;18.30;99.90
14687;DHT22;7431;49.440;11.084;2023-02-22T06:03:48;18.30;99.90
14687;DHT22;7431;49.440;11.084;2023-02-22T06:06:15;18.30;99.90
14687;DHT22;7431;49.440;11.084;2023-02-22T06:08:41;18.30;99.90
14687;DHT22;7431;49.440;11.084;2023-02-22T06:11:06;18.30;99.90
14687;DHT22;7431;49.440;11.084;2023-02-22T06:13:34;18.30;99.90
14687;DHT22;7431;49.440;11.084;2023-02-22T06:16:00;18.30;99.90
14687;DHT22;7431;49.440;11.084;2023-02-22T06:18:25;18.20;99.90
14687;DHT22;7431;49.440;11.084;2023-02-22T06:20:51;18.20;99.90
14687;DHT22;7431;49.440;11.084;2023-02-22T06:23:17;18.30;99.90
14687;DHT22;7431;49.440;11.084;2023-02-22T06:25:43;18.30;99.90
14687;DHT22;7431;49.440;11.084;2023-02-22T06:28:08;18.30;99.90
14687;DHT22;7431;49.440;11.084;2023-02-22T06:30:35;18.40;99.90
14687;DHT22;7431;49.440;11.084;2023-02-22T06:33:00;18.30;99.90
14687;DHT22;7431;49.440;11.084;2023-02-22T06:35:26;18.30;99.90
14687;DHT22;7431;49.440;11.084;2023-02-22T06:37:51;18.30;99.90
14687;DHT22;7431;49.440;11.084;2023-02-22T06:40:17;18.30;99.90
14687;DHT22;7431;49.440;11.084;2023-02-22T06:42:43;18.30;99.90
14687;DHT22;7431;49.440;11.084;2023-02-22T06:45:09;18.30;99.90
14687;DHT22;7431;49.440;11.084;2023-02-22T06:47:41;18.30;99.90
14687;DHT22;7431;49.440;11.084;2023-02-22T06:50:23;18.30;99.90
14687;DHT22;7431;49.440;11.084;2023-02-22T06:52:49;18.30;99.90
14687;DHT22;7431;49.440;11.084;2023-02-22T06:55:26;18.30;99.90
14687;DHT22;7431;49.440;11.084;2023-02-22T06:57:52;18.30;99.90
14687;DHT22;7431;49.440;11.084;2023-02-22T07:00:19;18.30;99.90
14687;DHT22;7431;49.440;11.084;2023-02-22T07:02:46;18.30;99.90
14687;DHT22;7431;49.440;11.084;2023-02-22T07:05:13;18.30;99.90
14687;DHT22;7431;49.440;11.084;2023-02-22T07:07:39;18.30;99.90
14687;DHT22;7431;49.440;11.084;2023-02-22T07:10:16;18.30;99.90
14687;DHT22;7431;49.440;11.084;2023-02-22T07:12:42;18.30;99.90
14687;DHT22;7431;49.440;11.084;2023-02-22T07:15:07;18.30;99.90
14687;DHT22;7431;49.440;11.084;2023-02-22T07:17:33;18.30;99.90
14687;DHT22;7431;49.440;11.084;2023-02-22T07:19:58;18.30;99.90
14687;DHT22;7431;49.440;11.084;2023-02-22T07:22:24;18.30;99.90
14687;DHT22;7431;49.440;11.084;2023-02-22T07:24:50;18.30;99.90
14687;DHT22;7431;49.440;11.084;2023-02-22T07:27:15;18.40;99.90
14687;DHT22;7431;49.440;11.084;2023-02-22T07:29:42;18.30;99.90
14687;DHT22;7431;49.440;11.084;2023-02-22T07:32:08;18.30;99.90
14687;DHT22;7431;49.440;11.084;2023-02-22T07:34:34;18.30;99.90
14687;DHT22;7431;49.440;11.084;2023-02-22T07:36:59;18.40;99.90
14687;DHT22;7431;49.440;11.084;2023-02-22T07:39:25;18.40;99.90
14687;DHT22;7431;49.440;11.084;2023-02-22T07:41:51;18.40;99.90
14687;DHT22;7431;49.440;11.084;2023-02-22T07:44:17;18.40;99.90
14687;DHT22;7431;49.440;11.084;2023-02-22T07:46:46;18.40;99.90
14687;DHT22;7431;49.440;11.084;2023-02-22T07:49:13;18.40;99.90
14687;DHT22;7431;49.440;11.084;2023-02-22T07:51:38;18.50;99.90
14687;DHT22;7431;49.440;11.084;2023-02-22T07:54:04;18.50;99.90
14687;DHT22;7431;49.440;11.084;2023-02-22T07:56:29;18.50;99.90
14687;DHT22;7431;49.440;11.084;2023-02-22T07:58:55;18.50;99.90
14687;DHT22;7431;49.440;11.084;2023-02-22T08:01:20;18.50;99.90
14687;DHT22;7431;49.440;11.084;2023-02-22T08:03:46;18.50;99.90
14687;DHT22;7431;49.440;11.084;2023-02-22T08:06:12;18.50;99.90
14687;DHT22;7431;49.440;11.084;2023-02-22T08:08:37;18.50;99.90
14687;DHT22;7431;49.440;11.084;2023-02-22T08:11:03;18.50;99.90
14687;DHT22;7431;49.440;11.084;2023-02-22T08:13:30;18.50;99.90
14687;DHT22;7431;49.440;11.084;2023-02-22T08:15:55;18.50;99.90
14687;DHT22;7431;49.440;11.084;2023-02-22T08:18:22;18.50;99.90
14687;DHT22;7431;49.440;11.084;2023-02-22T08:20:50;18.60;99.90
14687;DHT22;7431;49.440;11.084;2023-02-22T08:23:18;18.60;99.90
14687;DHT22;7431;49.440;11.084;2023-02-22T08:25:44;18.60;99.90
14687;DHT22;7431;49.440;11.084;2023-02-22T08:28:12;18.50;99.90
14687;DHT22;7431;49.440;11.084;2023-02-22T08:30:38;18.60;99.90
14687;DHT22;7431;49.440;11.084;2023-02-22T08:33:05;18.60;99.90
14687;DHT22;7431;49.440;11.084;2023-02-22T08:35:31;18.60;99.90
14687;DHT22;7431;49.440;11.084;2023-02-22T08:38:02;18.60;99.90
14687;DHT22;7431;49.440;11.084;2023-02-22T08:40:30;18.60;99.90
14687;DHT22;7431;49.440;11.084;2023-02-22T08:42:56;18.60;99.90
14687;DHT22;7431;49.440;11.084;2023-02-22T08:45:22;18.60;99.90
14687;DHT22;7431;49.440;11.084;2023-02-22T08:47:48;18.60;99.90
14687;DHT22;7431;49.440;11.084;2023-02-22T08:50:25;18.60;99.90
14687;DHT22;7431;49.440;11.084;2023-02-22T08:52:53;18.50;99.90
14687;DHT22;7431;49.440;11.084;2023-02-22T08:55:21;18.60;99.90
14687;DHT22;7431;49.440;11.084;2023-02-22T08:57:47;18.60;99.90
14687;DHT22;7431;49.440;11.084;2023-02-22T09:00:13;18.60;99.90
14687;DHT22;7431;49.440;11.084;2023-02-22T09:02:40;18.60;99.90
14687;DHT22;7431;49.440;11.084;2023-02-22T09:05:06;18.60;99.90
14687;DHT22;7431;49.440;11.084;2023-02-22T09:07:32;18.60;99.90
14687;DHT22;7431;49.440;11.084;2023-02-22T09:09:57;18.60;99.90
14687;DHT22;7431;49.440;11.084;2023-02-22T09:12:23;18.60;99.90
14687;DHT22;7431;49.440;11.084;2023-02-22T09:14:48;18.60;99.90
14687;DHT22;7431;49.440;11.084;2023-02-22T09:17:14;18.60;99.90
14687;DHT22;7431;49.440;11.084;2023-02-22T09:19:39;18.60;99.90
14687;DHT22;7431;49.440;11.084;2023-02-22T09:22:05;18.60;99.90
14687;DHT22;7431;49.440;11.084;2023-02-22T09:24:30;18.60;99.90
14687;DHT22;7431;49.440;11.084;2023-02-22T09:26:56;18.60;99.90
14687;DHT22;7431;49.440;11.084;2023-02-22T09:29:25;18.60;99.90
14687;DHT22;7431;49.440;11.084;2023-02-22T09:31:53;18.60;99.90
14687;DHT22;7431;49.440;11.084;2023-02-22T09:34:21;18.60;99.90
14687;DHT22;7431;49.440;11.084;2023-02-22T09:36:52;18.60;99.90
14687;DHT22;7431;49.440;11.084;2023-02-22T09:39:17;18.60;99.90
14687;DHT22;7431;49.440;11.084;2023-02-22T09:44:43;18.60;99.90
14687;DHT22;7431;49.440;11.084;2023-02-22T09:47:21;18.50;99.90
14687;DHT22;7431;49.440;11.084;2023-02-22T09:50:02;18.60;99.90
14687;DHT22;7431;49.440;11.084;2023-02-22T09:52:36;18.50;99.90
14687;DHT22;7431;49.440;11.084;2023-02-22T09:57:37;18.50;99.90
14687;DHT22;7431;49.440;11.084;2023-02-22T10:00:19;18.50;99.90
14687;DHT22;7431;49.440;11.084;2023-02-22T10:05:38;18.50;99.90
14687;DHT22;7431;49.440;11.084;2023-02-22T10:08:16;18.50;99.90
14687;DHT22;7431;49.440;11.084;2023-02-22T10:10:45;18.50;99.90
14687;DHT22;7431;49.440;11.084;2023-02-22T10:14:24;18.40;99.90
14687;DHT22;7431;49.440;11.084;2023-02-22T10:19:15;18.40;99.90
14687;DHT22;7431;49.440;11.084;2023-02-22T10:21:58;18.40;99.90
14687;DHT22;7431;49.440;11.084;2023-02-22T10:24:46;18.40;99.90
14687;DHT22;7431;49.440;11.084;2023-02-22T10:27:18;18.40;99.90
14687;DHT22;7431;49.440;11.084;2023-02-22T10:29:49;18.40;99.90
14687;DHT22;7431;49.440;11.084;2023-02-22T10:32:23;18.40;99.90
14687;DHT22;7431;49.440;11.084;2023-02-22T10:34:51;18.40;99.90
14687;DHT22;7431;49.440;11.084;2023-02-22T10:37:30;18.40;99.90
14687;DHT22;7431;49.440;11.084;2023-02-22T10:40:18;18.40;99.90
14687;DHT22;7431;49.440;11.084;2023-02-22T10:42:48;18.40;99.90
14687;DHT22;7431;49.440;11.084;2023-02-22T10:45:23;18.40;99.90
14687;DHT22;7431;49.440;11.084;2023-02-22T10:47:53;18.40;99.90
14687;DHT22;7431;49.440;11.084;2023-02-22T10:50:20;18.40;99.90
14687;DHT22;7431;49.440;11.084;2023-02-22T10:52:46;18.40;99.90
14687;DHT22;7431;49.440;11.084;2023-02-22T10:55:13;18.40;99.90
14687;DHT22;7431;49.440;11.084;2023-02-22T10:57:42;18.40;99.90
14687;DHT22;7431;49.440;11.084;2023-02-22T11:02:56;18.40;99.90
14687;DHT22;7431;49.440;11.084;2023-02-22T11:05:40;18.40;99.90
14687;DHT22;7431;49.440;11.084;2023-02-22T11:08:27;18.40;99.90
14687;DHT22;7431;49.440;11.084;2023-02-22T11:10:55;18.40;99.90
14687;DHT22;7431;49.440;11.084;2023-02-22T11:13:30;18.40;99.90
14687;DHT22;7431;49.440;11.084;2023-02-22T11:16:16;18.40;99.90
14687;DHT22;7431;49.440;11.084;2023-02-22T11:18:42;18.40;99.90
14687;DHT22;7431;49.440;11.084;2023-02-22T11:21:10;18.40;99.90
14687;DHT22;7431;49.440;11.084;2023-02-22T11:23:39;18.40;99.90
14687;DHT22;7431;49.440;11.084;2023-02-22T11:26:11;18.40;99.90
14687;DHT22;7431;49.440;11.084;2023-02-22T11:28:43;18.40;99.90
14687;DHT22;7431;49.440;11.084;2023-02-22T11:33:52;18.40;99.90
14687;DHT22;7431;49.440;11.084;2023-02-22T11:36:39;18.40;99.90
14687;DHT22;7431;49.440;11.084;2023-02-22T11:39:26;18.40;99.90
14687;DHT22;7431;49.440;11.084;2023-02-22T11:41:54;18.40;99.90
14687;DHT22;7431;49.440;11.084;2023-02-22T11:44:28;18.40;99.90
14687;DHT22;7431;49.440;11.084;2023-02-22T11:46:56;18.40;99.90
14687;DHT22;7431;49.440;11.084;2023-02-22T11:49:38;18.40;99.90
14687;DHT22;7431;49.440;11.084;2023-02-22T11:54:51;18.40;99.90
14687;DHT22;7431;49.440;11.084;2023-02-22T12:11:06;18.30;99.90
14687;DHT22;7431;49.440;11.084;2023-02-22T12:19:45;18.30;99.90
14687;DHT22;7431;49.440;11.084;2023-02-22T12:22:27;18.30;99.90
14687;DHT22;7431;49.440;11.084;2023-02-22T12:25:06;18.40;99.90
14687;DHT22;7431;49.440;11.084;2023-02-22T12:27:44;18.40;99.90
14687;DHT22;7431;49.440;11.084;2023-02-22T12:30:17;18.40;99.90
14687;DHT22;7431;49.440;11.084;2023-02-22T12:32:49;18.30;99.90
14687;DHT22;7431;49.440;11.084;2023-02-22T12:35:37;18.40;99.90
14687;DHT22;7431;49.440;11.084;2023-02-22T12:44:17;18.30;99.90
14687;DHT22;7431;49.440;11.084;2023-02-22T12:46:49;18.30;99.90
14687;DHT22;7431;49.440;11.084;2023-02-22T12:55:15;18.30;99.90
14687;DHT22;7431;49.440;11.084;2023-02-22T13:00:42;18.30;99.90
14687;DHT22;7431;49.440;11.084;2023-02-22T13:06:23;18.40;99.90
14687;DHT22;7431;49.440;11.084;2023-02-22T13:08:49;18.30;99.90
14687;DHT22;7431;49.440;11.084;2023-02-22T13:12:06;18.30;99.90
14687;DHT22;7431;49.440;11.084;2023-02-22T13:15:00;18.30;99.90
14687;DHT22;7431;49.440;11.084;2023-02-22T13:20:36;18.30;99.90
14687;DHT22;7431;49.440;11.084;2023-02-22T13:23:34;18.30;99.90
14687;DHT22;7431;49.440;11.084;2023-02-22T13:26:33;18.30;99.90
14687;DHT22;7431;49.440;11.084;2023-02-22T13:29:23;18.30;99.90
14687;DHT22;7431;49.440;11.084;2023-02-22T13:43:13;18.30;99.90
14687;DHT22;7431;49.440;11.084;2023-02-22T13:48:59;18.30;99.90
14687;DHT22;7431;49.440;11.084;2023-02-22T13:51:44;18.30;99.90
14687;DHT22;7431;49.440;11.084;2023-02-22T13:56:47;18.30;99.90
14687;DHT22;7431;49.440;11.084;2023-02-22T13:59:32;18.30;99.90
14687;DHT22;7431;49.440;11.084;2023-02-22T14:02:00;18.30;99.90
14687;DHT22;7431;49.440;11.084;2023-02-22T14:07:00;18.20;99.90
14687;DHT22;7431;49.440;11.084;2023-02-22T14:09:49;18.30;99.90
14687;DHT22;7431;49.440;11.084;2023-02-22T14:18:14;18.30;99.90
14687;DHT22;7431;49.440;11.084;2023-02-22T14:20:41;18.30;99.90
14687;DHT22;7431;49.440;11.084;2023-02-22T14:23:27;18.30;99.90
14687;DHT22;7431;49.440;11.084;2023-02-22T14:26:27;18.30;99.90
14687;DHT22;7431;49.440;11.084;2023-02-22T14:28:57;18.30;99.90
14687;DHT22;7431;49.440;11.084;2023-02-22T14:36:22;18.30;99.90
14687;DHT22;7431;49.440;11.084;2023-02-22T14:38:49;18.30;99.90
14687;DHT22;7431;49.440;11.084;2023-02-22T14:41:21;18.30;99.90
14687;DHT22;7431;49.440;11.084;2023-02-22T14:43:49;18.30;99.90
14687;DHT22;7431;49.440;11.084;2023-02-22T14:46:20;18.30;99.90
14687;DHT22;7431;49.440;11.084;2023-02-22T14:48:48;18.30;99.90
14687;DHT22;7431;49.440;11.084;2023-02-22T14:51:39;18.20;99.90
14687;DHT22;7431;49.440;11.084;2023-02-22T14:54:22;18.30;99.90
14687;DHT22;7431;49.440;11.084;2023-02-22T14:59:57;18.20;99.90
14687;DHT22;7431;49.440;11.084;2023-02-22T15:02:25;18.20;99.90
14687;DHT22;7431;49.440;11.084;2023-02-22T15:04:54;18.20;99.90
14687;DHT22;7431;49.440;11.084;2023-02-22T15:07:26;18.20;99.90
14687;DHT22;7431;49.440;11.084;2023-02-22T15:10:05;18.20;99.90
14687;DHT22;7431;49.440;11.084;2023-02-22T15:12:31;18.20;99.90
14687;DHT22;7431;49.440;11.084;2023-02-22T15:15:18;18.20;99.90
14687;DHT22;7431;49.440;11.084;2023-02-22T15:17:56;18.20;99.90
14687;DHT22;7431;49.440;11.084;2023-02-22T15:20:23;18.20;99.90
14687;DHT22;7431;49.440;11.084;2023-02-22T15:22:49;18.20;99.90
14687;DHT22;7431;49.440;11.084;2023-02-22T15:25:15;18.20;99.90
14687;DHT22;7431;49.440;11.084;2023-02-22T15:27:44;18.20;99.90
14687;DHT22;7431;49.440;11.084;2023-02-22T15:30:26;18.20;99.90
14687;DHT22;7431;49.440;11.084;2023-02-22T15:32:53;18.20;99.90
14687;DHT22;7431;49.440;11.084;2023-02-22T15:35:25;18.20;99.90
14687;DHT22;7431;49.440;11.084;2023-02-22T15:38:04;18.20;99.90
14687;DHT22;7431;49.440;11.084;2023-02-22T15:40:34;18.10;99.90
14687;DHT22;7431;49.440;11.084;2023-02-22T15:43:03;18.10;99.90
14687;DHT22;7431;49.440;11.084;2023-02-22T15:45:29;18.10;99.90
14687;DHT22;7431;49.440;11.084;2023-02-22T15:47:57;18.10;99.90
14687;DHT22;7431;49.440;11.084;2023-02-22T15:50:31;18.10;99.90
14687;DHT22;7431;49.440;11.084;2023-02-22T15:53:27;18.10;99.90
14687;DHT22;7431;49.440;11.084;2023-02-22T15:55:59;18.10;99.90
14687;DHT22;7431;49.440;11.084;2023-02-22T15:58:26;18.10;99.90
14687;DHT22;7431;49.440;11.084;2023-02-22T16:01:06;18.10;99.90
14687;DHT22;7431;49.440;11.084;2023-02-22T16:03:35;18.10;99.90
14687;DHT22;7431;49.440;11.084;2023-02-22T16:06:11;18.10;99.90
14687;DHT22;7431;49.440;11.084;2023-02-22T16:08:49;18.10;99.90
14687;DHT22;7431;49.440;11.084;2023-02-22T16:11:31;18.10;99.90
14687;DHT22;7431;49.440;11.084;2023-02-22T16:17:22;18.10;99.90
14687;DHT22;7431;49.440;11.084;2023-02-22T16:22:42;18.10;99.90
14687;DHT22;7431;49.440;11.084;2023-02-22T16:25:25;18.10;99.90
14687;DHT22;7431;49.440;11.084;2023-02-22T16:27:57;18.10;99.90
14687;DHT22;7431;49.440;11.084;2023-02-22T16:30:28;18.10;99.90
14687;DHT22;7431;49.440;11.084;2023-02-22T16:32:55;18.10;99.90
14687;DHT22;7431;49.440;11.084;2023-02-22T16:35:24;18.10;99.90
14687;DHT22;7431;49.440;11.084;2023-02-22T16:38:01;18.10;99.90
14687;DHT22;7431;49.440;11.084;2023-02-22T16:40:44;18.10;99.90
14687;DHT22;7431;49.440;11.084;2023-02-22T16:43:13;18.10;99.90
14687;DHT22;7431;49.440;11.084;2023-02-22T16:45:39;18.10;99.90
14687;DHT22;7431;49.440;11.084;2023-02-22T16:48:21;18.10;99.90
14687;DHT22;7431;49.440;11.084;2023-02-22T16:50:47;18.00;99.90
14687;DHT22;7431;49.440;11.084;2023-02-22T16:53:15;18.00;99.90
14687;DHT22;7431;49.440;11.084;2023-02-22T16:55:44;18.00;99.90
14687;DHT22;7431;49.440;11.084;2023-02-22T16:58:13;18.00;99.90
14687;DHT22;7431;49.440;11.084;2023-02-22T17:00:39;18.00;99.90
14687;DHT22;7431;49.440;11.084;2023-02-22T17:03:12;18.00;99.90
14687;DHT22;7431;49.440;11.084;2023-02-22T17:05:38;18.00;99.90
14687;DHT22;7431;49.440;11.084;2023-02-22T17:08:04;18.00;99.90
14687;DHT22;7431;49.440;11.084;2023-02-22T17:10:29;18.00;99.90
14687;DHT22;7431;49.440;11.084;2023-02-22T17:12:55;18.00;99.90
14687;DHT22;7431;49.440;11.084;2023-02-22T17:17:53;18.00;99.90
14687;DHT22;7431;49.440;11.084;2023-02-22T17:20:19;18.10;99.90
14687;DHT22;7431;49.440;11.084;2023-02-22T17:23:07;18.00;99.90
14687;DHT22;7431;49.440;11.084;2023-02-22T17:25:39;18.00;99.90
14687;DHT22;7431;49.440;11.084;2023-02-22T17:28:05;18.00;99.90
14687;DHT22;7431;49.440;11.084;2023-02-22T17:30:31;18.00;99.90
14687;DHT22;7431;49.440;11.084;2023-02-22T17:32:58;18.10;99.90
14687;DHT22;7431;49.440;11.084;2023-02-22T17:35:29;18.00;99.90
14687;DHT22;7431;49.440;11.084;2023-02-22T17:37:56;18.00;99.90
14687;DHT22;7431;49.440;11.084;2023-02-22T17:40:22;18.00;99.90
14687;DHT22;7431;49.440;11.084;2023-02-22T17:42:49;17.90;99.90
14687;DHT22;7431;49.440;11.084;2023-02-22T17:45:20;17.80;99.90
14687;DHT22;7431;49.440;11.084;2023-02-22T17:47:50;17.80;99.90
14687;DHT22;7431;49.440;11.084;2023-02-22T17:50:17;17.90;99.90
14687;DHT22;7431;49.440;11.084;2023-02-22T17:52:44;17.90;99.90
14687;DHT22;7431;49.440;11.084;2023-02-22T17:55:11;17.90;99.90
14687;DHT22;7431;49.440;11.084;2023-02-22T17:57:37;17.90;99.90
14687;DHT22;7431;49.440;11.084;2023-02-22T18:00:06;18.10;99.90
14687;DHT22;7431;49.440;11.084;2023-02-22T18:02:38;18.00;99.90
14687;DHT22;7431;49.440;11.084;2023-02-22T18:05:04;18.10;99.90
14687;DHT22;7431;49.440;11.084;2023-02-22T18:07:30;18.10;99.90
14687;DHT22;7431;49.440;11.084;2023-02-22T18:09:56;18.20;99.90
14687;DHT22;7431;49.440;11.084;2023-02-22T18:12:22;18.20;99.90